< < Back
Terminal Aerodrome Forecast


Current Version              Previous Versions:   1  2  3  4  5  6  7  8  9  

Terminal Aerodrome Forecast

342
FTUS44 KBMX 152300
TAFMGM
TAF
KMGM 152336Z 1600/1624 35009KT P6SM SKC
     FM161000 02009KT P6SM SKC
     FM161500 09009G15KT P6SM SKC=



Latest METAR

514
SAUS80 KWBC 162200
MTRMGM
METAR KMGM 162153Z 08007KT 10SM CLR 19/01 A3017 RMK AO2 SLP214
T01890006


USA.gov is the U.S. government's official web portal to all federal, state and local government web resources and services.